Time,TemperatureF,DewpointF,PressureIn,WindDirection,WindDirectionDegrees,WindSpeedMPH,WindSpeedGustMPH,Humidity,HourlyPrecipIn,Conditions,Clouds,dailyrainin,SoftwareType,DateUTC
2013-04-24 00:07:00,59.0,51.0,29.91,WNW,288,0.0,3.0,74,0.00,,,0.00,weatherlink.com 1.10,2013-04-23 23:07:00,
2013-04-24 00:22:00,58.7,50.0,29.91,West,266,0.0,3.0,74,0.00,,,0.00,weatherlink.com 1.10,2013-04-23 23:22:00,
2013-04-24 00:37:00,58.8,50.0,29.90,WNW,283,2.0,8.0,72,0.00,,,0.00,weatherlink.com 1.10,2013-04-23 23:37:00,
2013-04-24 00:52:00,59.0,50.0,29.89,WSW,253,2.0,6.0,73,0.00,,,0.00,weatherlink.com 1.10,2013-04-23 23:52:00,
2013-04-24 01:07:00,59.3,50.0,29.89,WSW,252,4.0,9.0,72,0.00,,,0.00,weatherlink.com 1.10,2013-04-24 00:07:00,
2013-04-24 01:22:00,59.8,50.0,29.89,West,264,6.0,17.0,71,0.00,,,0.00,weatherlink.com 1.10,2013-04-24 00:22:00,
2013-04-24 01:37:00,59.3,51.0,29.89,WSW,239,2.0,10.0,73,0.00,,,0.00,weatherlink.com 1.10,2013-04-24 00:37:00,
2013-04-24 01:52:00,58.8,51.0,29.88,WSW,257,1.0,9.0,75,0.00,,,0.00,weatherlink.com 1.10,2013-04-24 00:52:00,
2013-04-24 02:07:00,58.6,51.0,29.88,West,267,4.0,12.0,77,0.00,,,0.00,weatherlink.com 1.10,2013-04-24 01:07:00,
2013-04-24 02:22:00,58.2,51.0,29.88,WNW,287,3.0,12.0,78,0.00,,,0.00,weatherlink.com 1.10,2013-04-24 01:22:00,
2013-04-24 02:38:00,57.8,52.0,29.88,NE,34,2.0,16.0,80,0.00,,,0.00,weatherlink.com 1.10,2013-04-24 01:38:00,
2013-04-24 02:53:00,58.0,52.0,29.87,West,266,6.0,13.0,80,0.00,,,0.00,weatherlink.com 1.10,2013-04-24 01:53:00,
2013-04-24 03:08:00,57.7,52.0,29.87,West,269,11.0,17.0,81,0.00,,,0.00,weatherlink.com 1.10,2013-04-24 02:08:00,
2013-04-24 03:23:00,57.2,52.0,29.87,SSW,195,8.0,19.0,82,0.00,,,0.00,weatherlink.com 1.10,2013-04-24 02:23:00,
2013-04-24 03:38:00,56.8,51.0,29.87,SW,215,3.0,13.0,82,0.00,,,0.00,weatherlink.com 1.10,2013-04-24 02:38:00,
2013-04-24 03:53:00,56.7,52.0,29.87,SW,221,9.0,17.0,83,0.00,,,0.00,weatherlink.com 1.10,2013-04-24 02:53:00,
2013-04-24 04:08:00,56.4,51.0,29.86,NW,307,10.0,15.0,83,0.00,,,0.00,weatherlink.com 1.10,2013-04-24 03:08:00,
2013-04-24 04:23:00,56.2,51.0,29.87,WSW,244,7.0,20.0,83,0.00,,,0.00,weatherlink.com 1.10,2013-04-24 03:23:00,
2013-04-24 04:38:00,55.9,51.0,29.86,WSW,257,2.0,21.0,84,0.00,,,0.00,weatherlink.com 1.10,2013-04-24 03:38:00,
2013-04-24 04:53:00,55.6,51.0,29.86,West,273,2.0,16.0,85,0.00,,,0.00,weatherlink.com 1.10,2013-04-24 03:53:00,
2013-04-24 05:08:00,55.3,51.0,29.86,SW,222,14.0,14.0,86,0.00,,,0.00,weatherlink.com 1.10,2013-04-24 04:08:00,
2013-04-24 05:23:00,55.0,51.0,29.86,West,269,4.0,21.0,87,0.00,,,0.00,weatherlink.com 1.10,2013-04-24 04:23:00,
2013-04-24 05:38:00,54.7,51.0,29.86,WSW,242,9.0,19.0,87,0.00,,,0.00,weatherlink.com 1.10,2013-04-24 04:38:00,
2013-04-24 05:53:00,54.6,51.0,29.86,SW,228,5.0,14.0,87,0.00,,,0.00,weatherlink.com 1.10,2013-04-24 04:53:00,
2013-04-24 06:08:00,54.6,51.0,29.86,WSW,248,15.0,15.0,88,0.00,,,0.00,weatherlink.com 1.10,2013-04-24 05:08:00,
2013-04-24 06:23:00,54.5,51.0,29.87,West,264,6.0,14.0,88,0.00,,,0.00,weatherlink.com 1.10,2013-04-24 05:23:00,
2013-04-24 06:38:00,54.6,51.0,29.87,WNW,298,4.0,17.0,88,0.00,,,0.00,weatherlink.com 1.10,2013-04-24 05:38:00,
2013-04-24 06:53:00,54.6,51.0,29.88,WNW,283,3.0,13.0,88,0.00,,,0.00,weatherlink.com 1.10,2013-04-24 05:53:00,
2013-04-24 07:08:00,54.4,51.0,29.88,West,261,6.0,14.0,88,0.00,,,0.00,weatherlink.com 1.10,2013-04-24 06:08:00,
2013-04-24 07:23:00,54.4,51.0,29.89,NE,44,1.0,11.0,88,0.00,,,0.00,weatherlink.com 1.10,2013-04-24 06:23:00,
2013-04-24 07:38:00,54.4,51.0,29.89,WNW,284,2.0,11.0,88,0.00,,,0.00,weatherlink.com 1.10,2013-04-24 06:38:00,
2013-04-24 07:53:00,54.6,51.0,29.90,WSW,242,5.0,8.0,88,0.00,,,0.00,weatherlink.com 1.10,2013-04-24 06:53:00,
2013-04-24 08:08:00,54.5,51.0,29.90,SW,236,3.0,11.0,88,0.00,,,0.00,weatherlink.com 1.10,2013-04-24 07:08:00,
2013-04-24 08:23:00,54.7,51.0,29.91,West,276,3.0,8.0,88,0.00,,,0.00,weatherlink.com 1.10,2013-04-24 07:23:00,
2013-04-24 08:38:00,55.0,51.0,29.91,West,259,4.0,12.0,87,0.00,,,0.00,weatherlink.com 1.10,2013-04-24 07:38:00,
2013-04-24 08:53:00,55.4,51.0,29.91,SW,228,5.0,11.0,86,0.00,,,0.00,weatherlink.com 1.10,2013-04-24 07:53:00,
2013-04-24 09:09:00,56.1,51.0,29.92,WNW,283,5.0,14.0,84,0.00,,,0.00,weatherlink.com 1.10,2013-04-24 08:09:00,
2013-04-24 09:24:00,56.3,51.0,29.93,West,274,10.0,11.0,83,0.00,,,0.00,weatherlink.com 1.10,2013-04-24 08:24:00,
2013-04-24 09:39:00,56.3,51.0,29.93,ENE,76,2.0,10.0,82,0.00,,,0.00,weatherlink.com 1.10,2013-04-24 08:39:00,
2013-04-24 09:54:00,56.6,51.0,29.94,WSW,240,7.0,11.0,82,0.00,,,0.00,weatherlink.com 1.10,2013-04-24 08:54:00,
2013-04-24 10:09:00,57.2,51.0,29.94,NNW,335,4.0,11.0,80,0.00,,,0.00,weatherlink.com 1.10,2013-04-24 09:09:00,
2013-04-24 10:24:00,58.2,51.0,29.94,NW,307,9.0,14.0,76,0.00,,,0.00,weatherlink.com 1.10,2013-04-24 09:24:00,
2013-04-24 10:39:00,58.2,51.0,29.95,WSW,248,5.0,14.0,76,0.00,,,0.00,weatherlink.com 1.10,2013-04-24 09:39:00,
2013-04-24 10:54:00,57.6,50.0,29.96,WNW,290,3.0,13.0,77,0.00,,,0.00,weatherlink.com 1.10,2013-04-24 09:54:00,
2013-04-24 11:09:00,57.2,51.0,29.97,SE,131,2.0,9.0,79,0.00,,,0.00,weatherlink.com 1.10,2013-04-24 10:09:00,
2013-04-24 11:24:00,56.8,51.0,29.97,West,263,4.0,9.0,80,0.00,,,0.00,weatherlink.com 1.10,2013-04-24 10:24:00,
2013-04-24 11:39:00,57.0,52.0,29.98,SW,236,6.0,11.0,82,0.00,,,0.00,weatherlink.com 1.10,2013-04-24 10:39:00,
2013-04-24 11:54:00,55.9,52.0,29.98,West,281,1.0,10.0,86,0.00,,,0.00,weatherlink.com 1.10,2013-04-24 10:54:00,
2013-04-24 12:09:00,56.2,52.0,29.99,WNW,295,2.0,10.0,87,0.00,,,0.00,weatherlink.com 1.10,2013-04-24 11:09:00,
2013-04-24 12:24:00,56.0,52.0,30.00,NNW,335,2.0,10.0,85,0.00,,,0.00,weatherlink.com 1.10,2013-04-24 11:24:00,
2013-04-24 12:39:00,54.8,52.0,30.00,NW,314,3.0,6.0,89,0.00,,,0.00,weatherlink.com 1.10,2013-04-24 11:39:00,
2013-04-24 12:54:00,54.2,51.0,30.01,WSW,246,1.0,6.0,90,0.00,,,0.00,weatherlink.com 1.10,2013-04-24 11:54:00,
2013-04-24 13:09:00,54.2,52.0,30.01,WSW,257,1.0,3.0,91,0.00,,,0.00,weatherlink.com 1.10,2013-04-24 12:09:00,
2013-04-24 13:24:00,54.1,51.0,30.02,North,358,2.0,7.0,89,0.00,,,0.00,weatherlink.com 1.10,2013-04-24 12:24:00,
2013-04-24 13:39:00,53.9,50.0,30.02,NNW,335,1.0,9.0,87,0.00,,,0.00,weatherlink.com 1.10,2013-04-24 12:39:00,
2013-04-24 13:54:00,54.2,50.0,30.03,West,271,1.0,6.0,85,0.00,,,0.00,weatherlink.com 1.10,2013-04-24 12:54:00,
2013-04-24 14:09:00,54.3,50.0,30.03,NNE,23,1.0,7.0,84,0.00,,,0.00,weatherlink.com 1.10,2013-04-24 13:09:00,
2013-04-24 14:24:00,54.6,49.0,30.03,NNW,328,1.0,7.0,82,0.00,,,0.00,weatherlink.com 1.10,2013-04-24 13:24:00,
2013-04-24 14:39:00,55.2,50.0,30.03,SW,236,1.0,6.0,81,0.00,,,0.00,weatherlink.com 1.10,2013-04-24 13:39:00,
2013-04-24 14:54:00,55.7,49.0,30.03,North,354,1.0,4.0,79,0.00,,,0.00,weatherlink.com 1.10,2013-04-24 13:54:00,
2013-04-24 15:09:00,55.7,49.0,30.04,SSW,207,1.0,4.0,79,0.00,,,0.00,weatherlink.com 1.10,2013-04-24 14:09:00,
2013-04-24 15:24:00,55.2,49.0,30.04,NNW,342,1.0,3.0,80,0.00,,,0.00,weatherlink.com 1.10,2013-04-24 14:24:00,
2013-04-24 15:39:00,54.9,49.0,30.05,NE,36,1.0,4.0,79,0.00,,,0.00,weatherlink.com 1.10,2013-04-24 14:39:00,
2013-04-24 15:54:00,53.3,48.0,30.05,East,93,2.0,5.0,81,0.00,,,0.00,weatherlink.com 1.10,2013-04-24 14:54:00,
2013-04-24 16:10:00,51.4,47.0,30.05,East,101,3.0,7.0,85,0.01,,,0.01,weatherlink.com 1.10,2013-04-24 15:10:00,
2013-04-24 16:25:00,49.9,47.0,30.06,East,95,2.0,7.0,89,0.02,,,0.02,weatherlink.com 1.10,2013-04-24 15:25:00,
2013-04-24 16:40:00,49.6,47.0,30.06,SSE,150,2.0,5.0,90,0.02,,,0.02,weatherlink.com 1.10,2013-04-24 15:40:00,
2013-04-24 16:55:00,49.4,47.0,30.06,SE,143,2.0,6.0,91,0.02,,,0.02,weatherlink.com 1.10,2013-04-24 15:55:00,
2013-04-24 17:10:00,49.3,47.0,30.06,SE,127,2.0,5.0,91,0.02,,,0.03,weatherlink.com 1.10,2013-04-24 16:10:00,
2013-04-24 17:25:00,49.3,47.0,30.06,SE,132,1.0,3.0,92,0.02,,,0.04,weatherlink.com 1.10,2013-04-24 16:25:00,
2013-04-24 17:40:00,49.3,47.0,30.07,ESE,110,4.0,5.0,91,0.02,,,0.05,weatherlink.com 1.10,2013-04-24 16:40:00,
2013-04-24 17:55:00,49.2,47.0,30.07,SE,137,2.0,4.0,91,0.03,,,0.06,weatherlink.com 1.10,2013-04-24 16:55:00,
2013-04-24 18:10:00,48.7,47.0,30.06,East,87,3.0,5.0,92,0.02,,,0.06,weatherlink.com 1.10,2013-04-24 17:10:00,
2013-04-24 18:25:00,48.5,46.0,30.06,SE,124,3.0,6.0,92,0.02,,,0.06,weatherlink.com 1.10,2013-04-24 17:25:00,
2013-04-24 18:40:00,48.5,47.0,30.07,East,96,2.0,4.0,93,0.02,,,0.06,weatherlink.com 1.10,2013-04-24 17:40:00,
2013-04-24 18:55:00,48.4,47.0,30.07,East,84,2.0,4.0,93,0.01,,,0.06,weatherlink.com 1.10,2013-04-24 17:55:00,
2013-04-24 19:10:00,48.2,46.0,30.07,East,87,4.0,6.0,93,0.02,,,0.07,weatherlink.com 1.10,2013-04-24 18:10:00,
2013-04-24 19:25:00,47.8,46.0,30.07,East,95,2.0,7.0,93,0.02,,,0.09,weatherlink.com 1.10,2013-04-24 18:25:00,
2013-04-24 19:40:00,47.6,46.0,30.07,ESE,114,4.0,7.0,93,0.02,,,0.09,weatherlink.com 1.10,2013-04-24 18:40:00,
2013-04-24 19:55:00,46.8,45.0,30.07,ESE,102,2.0,9.0,94,0.03,,,0.09,weatherlink.com 1.10,2013-04-24 18:55:00,
2013-04-24 20:10:00,46.7,45.0,30.08,ESE,104,4.0,8.0,94,0.03,,,0.10,weatherlink.com 1.10,2013-04-24 19:10:00,
2013-04-24 20:25:00,46.4,45.0,30.08,ESE,103,2.0,7.0,94,0.02,,,0.11,weatherlink.com 1.10,2013-04-24 19:25:00,
2013-04-24 20:40:00,46.1,45.0,30.08,ESE,114,6.0,6.0,94,0.02,,,0.11,weatherlink.com 1.10,2013-04-24 19:40:00,
2013-04-24 20:55:00,46.0,44.0,30.08,ESE,108,2.0,7.0,94,0.02,,,0.12,weatherlink.com 1.10,2013-04-24 19:55:00,
2013-04-24 21:10:00,45.8,44.0,30.08,ENE,72,2.0,7.0,94,0.02,,,0.12,weatherlink.com 1.10,2013-04-24 20:10:00,
2013-04-24 21:25:00,45.5,44.0,30.08,ESE,118,5.0,7.0,93,0.02,,,0.13,weatherlink.com 1.10,2013-04-24 20:25:00,
2013-04-24 21:40:00,45.5,43.0,30.08,East,84,3.0,7.0,92,0.02,,,0.13,weatherlink.com 1.10,2013-04-24 20:40:00,
2013-04-24 21:55:00,45.6,43.0,30.08,East,79,2.0,5.0,91,0.01,,,0.13,weatherlink.com 1.10,2013-04-24 20:55:00,
2013-04-24 22:10:00,45.5,43.0,30.08,East,95,4.0,4.0,91,0.02,,,0.13,weatherlink.com 1.10,2013-04-24 21:10:00,
2013-04-24 22:25:00,45.6,43.0,30.08,East,96,2.0,7.0,91,0.01,,,0.13,weatherlink.com 1.10,2013-04-24 21:25:00,
2013-04-24 22:40:00,45.7,43.0,30.07,SE,132,4.0,8.0,91,0.02,,,0.14,weatherlink.com 1.10,2013-04-24 21:40:00,
2013-04-24 22:55:00,45.8,44.0,30.07,ESE,113,6.0,6.0,92,0.02,,,0.14,weatherlink.com 1.10,2013-04-24 21:55:00,
2013-04-24 23:10:00,45.8,44.0,30.06,East,101,3.0,6.0,92,0.01,,,0.14,weatherlink.com 1.10,2013-04-24 22:10:00,
2013-04-24 23:25:00,45.8,44.0,30.06,ESE,123,4.0,6.0,92,0.02,,,0.15,weatherlink.com 1.10,2013-04-24 22:25:00,
2013-04-24 23:40:00,45.9,44.0,30.06,ESE,103,6.0,6.0,93,0.01,,,0.15,weatherlink.com 1.10,2013-04-24 22:40:00,
2013-04-24 23:55:00,46.0,44.0,30.05,East,93,2.0,5.0,93,0.01,,,0.15,weatherlink.com 1.10,2013-04-24 22:55:00,